sensor_id;sensor_type;location;lat;lon;timestamp;P1;durP1;ratioP1;P2;durP2;ratioP2
73321;SDS011;61549;37.044;22.128;2022-10-20T00:00:57;6.63;;;4.03;;
73321;SDS011;61549;37.044;22.128;2022-10-20T00:03:25;5.65;;;4.07;;
73321;SDS011;61549;37.044;22.128;2022-10-20T00:05:52;5.15;;;4.40;;
73321;SDS011;61549;37.044;22.128;2022-10-20T00:08:18;5.07;;;4.22;;
73321;SDS011;61549;37.044;22.128;2022-10-20T00:10:51;6.35;;;4.30;;
73321;SDS011;61549;37.044;22.128;2022-10-20T00:13:23;4.88;;;4.18;;
73321;SDS011;61549;37.044;22.128;2022-10-20T00:15:50;6.18;;;4.07;;
73321;SDS011;61549;37.044;22.128;2022-10-20T00:18:17;6.65;;;4.00;;
73321;SDS011;61549;37.044;22.128;2022-10-20T00:20:43;5.47;;;4.00;;
73321;SDS011;61549;37.044;22.128;2022-10-20T00:23:09;6.55;;;4.30;;
73321;SDS011;61549;37.044;22.128;2022-10-20T00:25:35;4.80;;;4.30;;
73321;SDS011;61549;37.044;22.128;2022-10-20T00:28:02;6.75;;;4.30;;
73321;SDS011;61549;37.044;22.128;2022-10-20T00:30:27;5.18;;;4.00;;
73321;SDS011;61549;37.044;22.128;2022-10-20T00:32:53;6.05;;;3.90;;
73321;SDS011;61549;37.044;22.128;2022-10-20T00:35:19;6.95;;;4.28;;
73321;SDS011;61549;37.044;22.128;2022-10-20T00:37:45;5.20;;;4.10;;
73321;SDS011;61549;37.044;22.128;2022-10-20T00:40:11;7.45;;;4.60;;
73321;SDS011;61549;37.044;22.128;2022-10-20T00:42:37;6.20;;;4.28;;
73321;SDS011;61549;37.044;22.128;2022-10-20T00:45:11;4.43;;;4.00;;
73321;SDS011;61549;37.044;22.128;2022-10-20T00:47:42;5.03;;;4.20;;
73321;SDS011;61549;37.044;22.128;2022-10-20T00:50:22;5.80;;;4.20;;
73321;SDS011;61549;37.044;22.128;2022-10-20T00:53:03;4.68;;;4.00;;
73321;SDS011;61549;37.044;22.128;2022-10-20T00:55:30;5.53;;;4.07;;
73321;SDS011;61549;37.044;22.128;2022-10-20T00:57:58;4.28;;;3.88;;
73321;SDS011;61549;37.044;22.128;2022-10-20T01:00:26;5.30;;;4.00;;
73321;SDS011;61549;37.044;22.128;2022-10-20T01:02:55;6.43;;;4.38;;
73321;SDS011;61549;37.044;22.128;2022-10-20T01:05:25;6.28;;;4.28;;
73321;SDS011;61549;37.044;22.128;2022-10-20T01:07:51;4.82;;;4.40;;
73321;SDS011;61549;37.044;22.128;2022-10-20T01:10:17;5.38;;;4.13;;
73321;SDS011;61549;37.044;22.128;2022-10-20T01:15:44;5.45;;;4.10;;
73321;SDS011;61549;37.044;22.128;2022-10-20T01:23:53;5.35;;;4.13;;
73321;SDS011;61549;37.044;22.128;2022-10-20T01:32:09;5.75;;;4.20;;
73321;SDS011;61549;37.044;22.128;2022-10-20T01:40:24;5.25;;;4.00;;
73321;SDS011;61549;37.044;22.128;2022-10-20T01:42:54;5.27;;;3.90;;
73321;SDS011;61549;37.044;22.128;2022-10-20T01:45:26;7.60;;;4.47;;
73321;SDS011;61549;37.044;22.128;2022-10-20T01:47:54;6.03;;;4.30;;
73321;SDS011;61549;37.044;22.128;2022-10-20T01:50:22;5.47;;;4.28;;
73321;SDS011;61549;37.044;22.128;2022-10-20T01:52:53;5.75;;;4.00;;
73321;SDS011;61549;37.044;22.128;2022-10-20T01:55:22;6.07;;;4.20;;
73321;SDS011;61549;37.044;22.128;2022-10-20T02:00:17;4.97;;;4.00;;
73321;SDS011;61549;37.044;22.128;2022-10-20T02:02:53;5.28;;;4.00;;
73321;SDS011;61549;37.044;22.128;2022-10-20T02:07:57;5.22;;;4.00;;
73321;SDS011;61549;37.044;22.128;2022-10-20T02:10:46;4.68;;;4.28;;
73321;SDS011;61549;37.044;22.128;2022-10-20T02:13:14;6.63;;;4.28;;
73321;SDS011;61549;37.044;22.128;2022-10-20T02:15:44;7.15;;;3.83;;
73321;SDS011;61549;37.044;22.128;2022-10-20T02:18:14;4.65;;;4.10;;
73321;SDS011;61549;37.044;22.128;2022-10-20T02:20:46;4.90;;;4.15;;
73321;SDS011;61549;37.044;22.128;2022-10-20T02:23:14;5.43;;;4.28;;
73321;SDS011;61549;37.044;22.128;2022-10-20T02:25:42;4.85;;;4.10;;
73321;SDS011;61549;37.044;22.128;2022-10-20T02:28:09;5.18;;;3.70;;
73321;SDS011;61549;37.044;22.128;2022-10-20T02:30:37;4.53;;;3.90;;
73321;SDS011;61549;37.044;22.128;2022-10-20T02:33:05;5.30;;;4.07;;
73321;SDS011;61549;37.044;22.128;2022-10-20T02:35:32;5.20;;;4.07;;
73321;SDS011;61549;37.044;22.128;2022-10-20T02:37:59;3.95;;;3.50;;
73321;SDS011;61549;37.044;22.128;2022-10-20T02:40:25;4.13;;;3.70;;
73321;SDS011;61549;37.044;22.128;2022-10-20T02:42:52;4.70;;;3.80;;
73321;SDS011;61549;37.044;22.128;2022-10-20T02:45:19;4.28;;;3.67;;
73321;SDS011;61549;37.044;22.128;2022-10-20T02:47:45;4.35;;;3.95;;
73321;SDS011;61549;37.044;22.128;2022-10-20T02:50:11;3.88;;;3.50;;
73321;SDS011;61549;37.044;22.128;2022-10-20T02:52:37;5.88;;;3.53;;
73321;SDS011;61549;37.044;22.128;2022-10-20T02:55:04;4.95;;;3.80;;
73321;SDS011;61549;37.044;22.128;2022-10-20T02:57:30;5.07;;;4.07;;
73321;SDS011;61549;37.044;22.128;2022-10-20T02:59:56;4.10;;;3.70;;
73321;SDS011;61549;37.044;22.128;2022-10-20T03:02:22;5.47;;;3.83;;
73321;SDS011;61549;37.044;22.128;2022-10-20T03:04:48;4.88;;;3.95;;
73321;SDS011;61549;37.044;22.128;2022-10-20T03:07:14;5.82;;;3.90;;
73321;SDS011;61549;37.044;22.128;2022-10-20T03:09:40;5.05;;;3.88;;
73321;SDS011;61549;37.044;22.128;2022-10-20T03:12:06;5.10;;;3.58;;
73321;SDS011;61549;37.044;22.128;2022-10-20T03:14:31;3.75;;;3.38;;
73321;SDS011;61549;37.044;22.128;2022-10-20T03:16:57;4.10;;;3.60;;
73321;SDS011;61549;37.044;22.128;2022-10-20T03:19:23;4.13;;;3.72;;
73321;SDS011;61549;37.044;22.128;2022-10-20T03:21:49;5.97;;;3.60;;
73321;SDS011;61549;37.044;22.128;2022-10-20T03:24:15;3.90;;;3.35;;
73321;SDS011;61549;37.044;22.128;2022-10-20T03:26:41;4.40;;;3.70;;
73321;SDS011;61549;37.044;22.128;2022-10-20T03:29:07;4.50;;;3.42;;
73321;SDS011;61549;37.044;22.128;2022-10-20T03:31:33;4.72;;;3.47;;
73321;SDS011;61549;37.044;22.128;2022-10-20T03:33:58;4.10;;;3.10;;
73321;SDS011;61549;37.044;22.128;2022-10-20T03:36:24;3.42;;;3.10;;
73321;SDS011;61549;37.044;22.128;2022-10-20T03:38:50;6.32;;;3.40;;
73321;SDS011;61549;37.044;22.128;2022-10-20T03:41:16;5.55;;;3.35;;
73321;SDS011;61549;37.044;22.128;2022-10-20T03:43:42;5.10;;;3.65;;
73321;SDS011;61549;37.044;22.128;2022-10-20T03:46:09;6.15;;;3.47;;
73321;SDS011;61549;37.044;22.128;2022-10-20T03:48:36;4.53;;;3.40;;
73321;SDS011;61549;37.044;22.128;2022-10-20T03:51:03;6.53;;;3.78;;
73321;SDS011;61549;37.044;22.128;2022-10-20T03:53:30;5.40;;;3.15;;
73321;SDS011;61549;37.044;22.128;2022-10-20T03:55:56;4.05;;;3.17;;
73321;SDS011;61549;37.044;22.128;2022-10-20T03:58:22;4.63;;;3.45;;
73321;SDS011;61549;37.044;22.128;2022-10-20T04:00:48;4.00;;;3.10;;
73321;SDS011;61549;37.044;22.128;2022-10-20T04:03:14;3.35;;;3.03;;
73321;SDS011;61549;37.044;22.128;2022-10-20T04:05:40;5.70;;;3.40;;
73321;SDS011;61549;37.044;22.128;2022-10-20T04:08:06;4.13;;;3.60;;
73321;SDS011;61549;37.044;22.128;2022-10-20T04:10:32;4.97;;;3.38;;
73321;SDS011;61549;37.044;22.128;2022-10-20T04:12:58;3.85;;;2.97;;
73321;SDS011;61549;37.044;22.128;2022-10-20T04:15:25;4.18;;;3.25;;
73321;SDS011;61549;37.044;22.128;2022-10-20T04:17:51;4.18;;;3.10;;
73321;SDS011;61549;37.044;22.128;2022-10-20T04:20:17;3.35;;;2.67;;
73321;SDS011;61549;37.044;22.128;2022-10-20T04:22:43;4.18;;;3.10;;
73321;SDS011;61549;37.044;22.128;2022-10-20T04:25:09;5.65;;;2.97;;
73321;SDS011;61549;37.044;22.128;2022-10-20T04:27:37;4.43;;;2.80;;
73321;SDS011;61549;37.044;22.128;2022-10-20T04:30:03;6.03;;;2.75;;
73321;SDS011;61549;37.044;22.128;2022-10-20T04:32:29;3.58;;;3.00;;
73321;SDS011;61549;37.044;22.128;2022-10-20T04:34:55;5.70;;;2.90;;
73321;SDS011;61549;37.044;22.128;2022-10-20T04:37:22;4.78;;;3.05;;
73321;SDS011;61549;37.044;22.128;2022-10-20T04:39:48;3.97;;;3.10;;
73321;SDS011;61549;37.044;22.128;2022-10-20T04:42:15;4.15;;;3.00;;
73321;SDS011;61549;37.044;22.128;2022-10-20T04:44:42;6.70;;;3.25;;
73321;SDS011;61549;37.044;22.128;2022-10-20T04:47:08;5.53;;;3.60;;
73321;SDS011;61549;37.044;22.128;2022-10-20T04:49:34;4.43;;;3.10;;
73321;SDS011;61549;37.044;22.128;2022-10-20T04:52:00;5.20;;;3.10;;
73321;SDS011;61549;37.044;22.128;2022-10-20T04:54:26;6.35;;;3.30;;
73321;SDS011;61549;37.044;22.128;2022-10-20T04:56:52;3.80;;;2.90;;
73321;SDS011;61549;37.044;22.128;2022-10-20T04:59:18;4.40;;;2.97;;
73321;SDS011;61549;37.044;22.128;2022-10-20T05:01:44;3.80;;;3.20;;
73321;SDS011;61549;37.044;22.128;2022-10-20T05:04:10;4.47;;;3.30;;
73321;SDS011;61549;37.044;22.128;2022-10-20T05:06:36;4.63;;;3.10;;
73321;SDS011;61549;37.044;22.128;2022-10-20T05:09:03;4.53;;;3.50;;
73321;SDS011;61549;37.044;22.128;2022-10-20T05:11:30;4.43;;;3.47;;
73321;SDS011;61549;37.044;22.128;2022-10-20T05:14:00;5.43;;;3.83;;
73321;SDS011;61549;37.044;22.128;2022-10-20T05:16:26;5.35;;;3.88;;
73321;SDS011;61549;37.044;22.128;2022-10-20T05:18:52;6.78;;;4.05;;
73321;SDS011;61549;37.044;22.128;2022-10-20T05:21:19;8.88;;;4.30;;
73321;SDS011;61549;37.044;22.128;2022-10-20T05:23:47;5.63;;;4.50;;
73321;SDS011;61549;37.044;22.128;2022-10-20T05:26:14;8.10;;;4.70;;
73321;SDS011;61549;37.044;22.128;2022-10-20T05:28:42;5.38;;;3.78;;
73321;SDS011;61549;37.044;22.128;2022-10-20T05:31:10;7.10;;;3.17;;
73321;SDS011;61549;37.044;22.128;2022-10-20T05:33:36;9.25;;;5.60;;
73321;SDS011;61549;37.044;22.128;2022-10-20T05:36:06;8.35;;;4.13;;
73321;SDS011;61549;37.044;22.128;2022-10-20T05:38:33;5.82;;;3.35;;
73321;SDS011;61549;37.044;22.128;2022-10-20T05:41:07;5.70;;;3.25;;
73321;SDS011;61549;37.044;22.128;2022-10-20T05:43:36;4.28;;;3.10;;
73321;SDS011;61549;37.044;22.128;2022-10-20T05:46:03;6.05;;;3.10;;
73321;SDS011;61549;37.044;22.128;2022-10-20T05:48:29;3.22;;;2.72;;
73321;SDS011;61549;37.044;22.128;2022-10-20T05:51:05;5.05;;;2.67;;
73321;SDS011;61549;37.044;22.128;2022-10-20T05:53:35;4.97;;;2.83;;
73321;SDS011;61549;37.044;22.128;2022-10-20T05:56:06;5.63;;;3.38;;
73321;SDS011;61549;37.044;22.128;2022-10-20T05:58:33;5.05;;;3.38;;
73321;SDS011;61549;37.044;22.128;2022-10-20T06:01:09;6.07;;;3.60;;
73321;SDS011;61549;37.044;22.128;2022-10-20T06:03:42;4.80;;;3.30;;
73321;SDS011;61549;37.044;22.128;2022-10-20T06:06:12;5.78;;;3.00;;
73321;SDS011;61549;37.044;22.128;2022-10-20T06:08:38;4.13;;;3.20;;
73321;SDS011;61549;37.044;22.128;2022-10-20T06:11:04;4.32;;;3.10;;
73321;SDS011;61549;37.044;22.128;2022-10-20T06:13:32;3.90;;;3.20;;
73321;SDS011;61549;37.044;22.128;2022-10-20T06:16:02;4.57;;;3.00;;
73321;SDS011;61549;37.044;22.128;2022-10-20T06:18:33;3.90;;;3.00;;
73321;SDS011;61549;37.044;22.128;2022-10-20T06:21:03;3.92;;;2.70;;
73321;SDS011;61549;37.044;22.128;2022-10-20T06:23:34;5.00;;;3.20;;
73321;SDS011;61549;37.044;22.128;2022-10-20T06:26:03;3.67;;;3.10;;
73321;SDS011;61549;37.044;22.128;2022-10-20T06:28:31;5.38;;;3.85;;
73321;SDS011;61549;37.044;22.128;2022-10-20T06:30:58;4.22;;;3.30;;
73321;SDS011;61549;37.044;22.128;2022-10-20T06:33:28;5.50;;;2.97;;
73321;SDS011;61549;37.044;22.128;2022-10-20T06:35:58;3.42;;;2.85;;
73321;SDS011;61549;37.044;22.128;2022-10-20T06:38:25;3.33;;;2.60;;
73321;SDS011;61549;37.044;22.128;2022-10-20T06:40:51;5.72;;;2.90;;
73321;SDS011;61549;37.044;22.128;2022-10-20T06:43:17;3.80;;;3.28;;
73321;SDS011;61549;37.044;22.128;2022-10-20T06:45:43;7.20;;;4.90;;
73321;SDS011;61549;37.044;22.128;2022-10-20T06:48:17;3.05;;;2.72;;
73321;SDS011;61549;37.044;22.128;2022-10-20T06:50:43;5.53;;;2.70;;
73321;SDS011;61549;37.044;22.128;2022-10-20T06:53:09;4.07;;;2.30;;
73321;SDS011;61549;37.044;22.128;2022-10-20T06:55:36;3.40;;;2.60;;
73321;SDS011;61549;37.044;22.128;2022-10-20T06:58:02;4.15;;;2.67;;
73321;SDS011;61549;37.044;22.128;2022-10-20T07:00:28;4.95;;;2.55;;
73321;SDS011;61549;37.044;22.128;2022-10-20T07:02:53;3.05;;;2.55;;
73321;SDS011;61549;37.044;22.128;2022-10-20T07:05:19;4.72;;;2.47;;
73321;SDS011;61549;37.044;22.128;2022-10-20T07:07:46;6.20;;;3.35;;
73321;SDS011;61549;37.044;22.128;2022-10-20T07:10:12;4.55;;;3.70;;
73321;SDS011;61549;37.044;22.128;2022-10-20T07:12:37;3.88;;;3.20;;
73321;SDS011;61549;37.044;22.128;2022-10-20T07:15:03;4.75;;;3.38;;
73321;SDS011;61549;37.044;22.128;2022-10-20T07:17:30;3.50;;;3.15;;
73321;SDS011;61549;37.044;22.128;2022-10-20T07:19:56;3.97;;;2.95;;
73321;SDS011;61549;37.044;22.128;2022-10-20T07:22:22;5.10;;;3.30;;
73321;SDS011;61549;37.044;22.128;2022-10-20T07:24:47;3.45;;;2.97;;
73321;SDS011;61549;37.044;22.128;2022-10-20T07:27:13;3.97;;;3.17;;
73321;SDS011;61549;37.044;22.128;2022-10-20T07:29:40;6.70;;;3.30;;
73321;SDS011;61549;37.044;22.128;2022-10-20T07:32:06;5.65;;;3.20;;
73321;SDS011;61549;37.044;22.128;2022-10-20T07:34:32;6.47;;;3.42;;
73321;SDS011;61549;37.044;22.128;2022-10-20T07:36:57;5.30;;;3.40;;
73321;SDS011;61549;37.044;22.128;2022-10-20T07:39:23;4.30;;;3.50;;
73321;SDS011;61549;37.044;22.128;2022-10-20T07:41:50;8.00;;;3.78;;
73321;SDS011;61549;37.044;22.128;2022-10-20T07:44:17;5.43;;;3.63;;
73321;SDS011;61549;37.044;22.128;2022-10-20T07:46:44;4.40;;;3.25;;
73321;SDS011;61549;37.044;22.128;2022-10-20T07:49:10;4.60;;;3.50;;
73321;SDS011;61549;37.044;22.128;2022-10-20T07:51:35;8.23;;;4.00;;
73321;SDS011;61549;37.044;22.128;2022-10-20T07:56:31;6.60;;;4.40;;
73321;SDS011;61549;37.044;22.128;2022-10-20T07:58:59;6.30;;;4.78;;
73321;SDS011;61549;37.044;22.128;2022-10-20T08:01:25;5.53;;;4.60;;
73321;SDS011;61549;37.044;22.128;2022-10-20T08:03:51;6.55;;;4.50;;
73321;SDS011;61549;37.044;22.128;2022-10-20T08:06:17;7.00;;;4.35;;
73321;SDS011;61549;37.044;22.128;2022-10-20T08:08:43;6.10;;;4.10;;
73321;SDS011;61549;37.044;22.128;2022-10-20T08:11:09;5.43;;;4.00;;
73321;SDS011;61549;37.044;22.128;2022-10-20T08:13:35;7.97;;;5.30;;
73321;SDS011;61549;37.044;22.128;2022-10-20T08:16:03;18.17;;;8.02;;
73321;SDS011;61549;37.044;22.128;2022-10-20T08:18:29;9.98;;;4.60;;
73321;SDS011;61549;37.044;22.128;2022-10-20T08:21:09;5.35;;;4.45;;
73321;SDS011;61549;37.044;22.128;2022-10-20T08:23:42;11.07;;;5.40;;
73321;SDS011;61549;37.044;22.128;2022-10-20T08:26:10;5.75;;;3.80;;
73321;SDS011;61549;37.044;22.128;2022-10-20T08:28:37;5.13;;;3.63;;
73321;SDS011;61549;37.044;22.128;2022-10-20T08:31:04;7.57;;;3.50;;
73321;SDS011;61549;37.044;22.128;2022-10-20T08:33:31;5.80;;;4.07;;
73321;SDS011;61549;37.044;22.128;2022-10-20T08:36:06;7.35;;;3.80;;
73321;SDS011;61549;37.044;22.128;2022-10-20T08:38:33;7.47;;;4.15;;
73321;SDS011;61549;37.044;22.128;2022-10-20T08:41:00;7.63;;;4.10;;
73321;SDS011;61549;37.044;22.128;2022-10-20T08:43:27;6.85;;;3.55;;
73321;SDS011;61549;37.044;22.128;2022-10-20T08:45:55;4.93;;;3.85;;
73321;SDS011;61549;37.044;22.128;2022-10-20T08:48:23;4.72;;;3.75;;
73321;SDS011;61549;37.044;22.128;2022-10-20T08:50:51;5.30;;;3.60;;
73321;SDS011;61549;37.044;22.128;2022-10-20T08:53:18;4.78;;;3.70;;
73321;SDS011;61549;37.044;22.128;2022-10-20T08:55:46;5.47;;;3.53;;
73321;SDS011;61549;37.044;22.128;2022-10-20T08:58:18;4.93;;;3.20;;
73321;SDS011;61549;37.044;22.128;2022-10-20T09:00:46;5.45;;;3.50;;
73321;SDS011;61549;37.044;22.128;2022-10-20T09:03:23;7.30;;;3.70;;
73321;SDS011;61549;37.044;22.128;2022-10-20T09:06:15;10.07;;;3.50;;
73321;SDS011;61549;37.044;22.128;2022-10-20T09:08:40;3.83;;;2.90;;
73321;SDS011;61549;37.044;22.128;2022-10-20T09:11:10;6.38;;;3.38;;
73321;SDS011;61549;37.044;22.128;2022-10-20T09:13:40;5.43;;;3.25;;
73321;SDS011;61549;37.044;22.128;2022-10-20T09:16:10;4.63;;;3.50;;
73321;SDS011;61549;37.044;22.128;2022-10-20T09:19:02;5.50;;;3.20;;
73321;SDS011;61549;37.044;22.128;2022-10-20T09:21:31;5.05;;;3.15;;
73321;SDS011;61549;37.044;22.128;2022-10-20T09:24:00;4.35;;;2.95;;
73321;SDS011;61549;37.044;22.128;2022-10-20T09:26:35;4.45;;;3.15;;
73321;SDS011;61549;37.044;22.128;2022-10-20T09:29:10;4.22;;;3.10;;
73321;SDS011;61549;37.044;22.128;2022-10-20T09:31:48;4.18;;;3.20;;
73321;SDS011;61549;37.044;22.128;2022-10-20T09:36:47;6.07;;;3.25;;
73321;SDS011;61549;37.044;22.128;2022-10-20T09:39:25;5.22;;;2.95;;
73321;SDS011;61549;37.044;22.128;2022-10-20T09:42:03;4.63;;;3.28;;
73321;SDS011;61549;37.044;22.128;2022-10-20T09:44:45;4.10;;;2.97;;
73321;SDS011;61549;37.044;22.128;2022-10-20T09:47:15;5.07;;;3.10;;
73321;SDS011;61549;37.044;22.128;2022-10-20T09:49:42;4.47;;;3.10;;
73321;SDS011;61549;37.044;22.128;2022-10-20T09:52:22;5.18;;;3.22;;
73321;SDS011;61549;37.044;22.128;2022-10-20T09:54:56;3.00;;;2.70;;
73321;SDS011;61549;37.044;22.128;2022-10-20T09:57:26;4.38;;;3.17;;
73321;SDS011;61549;37.044;22.128;2022-10-20T09:59:52;5.47;;;3.65;;
73321;SDS011;61549;37.044;22.128;2022-10-20T10:04:47;5.95;;;3.40;;
73321;SDS011;61549;37.044;22.128;2022-10-20T10:07:35;5.78;;;3.40;;
73321;SDS011;61549;37.044;22.128;2022-10-20T10:12:53;4.40;;;3.05;;
73321;SDS011;61549;37.044;22.128;2022-10-20T10:15:25;6.03;;;3.10;;
73321;SDS011;61549;37.044;22.128;2022-10-20T10:17:58;4.05;;;3.05;;
73321;SDS011;61549;37.044;22.128;2022-10-20T10:20:36;4.03;;;3.03;;
73321;SDS011;61549;37.044;22.128;2022-10-20T10:31:06;3.25;;;2.80;;
73321;SDS011;61549;37.044;22.128;2022-10-20T10:33:53;3.75;;;2.78;;
73321;SDS011;61549;37.044;22.128;2022-10-20T10:38:57;4.45;;;3.20;;
73321;SDS011;61549;37.044;22.128;2022-10-20T10:41:32;4.85;;;2.72;;
73321;SDS011;61549;37.044;22.128;2022-10-20T10:49:28;4.38;;;2.85;;
73321;SDS011;61549;37.044;22.128;2022-10-20T10:52:17;3.63;;;3.00;;
73321;SDS011;61549;37.044;22.128;2022-10-20T10:55:24;4.07;;;2.75;;
73321;SDS011;61549;37.044;22.128;2022-10-20T10:58:01;3.03;;;2.50;;
73321;SDS011;61549;37.044;22.128;2022-10-20T11:06:28;4.25;;;2.70;;
73321;SDS011;61549;37.044;22.128;2022-10-20T11:09:16;2.85;;;2.60;;
73321;SDS011;61549;37.044;22.128;2022-10-20T11:14:47;3.13;;;2.42;;
73321;SDS011;61549;37.044;22.128;2022-10-20T11:17:45;3.58;;;2.70;;
73321;SDS011;61549;37.044;22.128;2022-10-20T11:28:36;4.65;;;2.53;;
73321;SDS011;61549;37.044;22.128;2022-10-20T11:31:15;2.40;;;2.20;;
73321;SDS011;61549;37.044;22.128;2022-10-20T11:37:17;5.28;;;3.03;;
73321;SDS011;61549;37.044;22.128;2022-10-20T11:40:23;5.32;;;3.15;;
73321;SDS011;61549;37.044;22.128;2022-10-20T11:42:56;4.05;;;3.10;;
73321;SDS011;61549;37.044;22.128;2022-10-20T11:50:39;4.18;;;2.88;;
73321;SDS011;61549;37.044;22.128;2022-10-20T11:53:16;3.78;;;2.95;;
73321;SDS011;61549;37.044;22.128;2022-10-20T11:58:29;4.72;;;2.90;;
73321;SDS011;61549;37.044;22.128;2022-10-20T12:12:05;4.95;;;3.00;;
73321;SDS011;61549;37.044;22.128;2022-10-20T12:14:44;4.90;;;3.38;;
73321;SDS011;61549;37.044;22.128;2022-10-20T12:20:52;3.70;;;2.92;;
73321;SDS011;61549;37.044;22.128;2022-10-20T12:22:55;4.43;;;2.80;;
73321;SDS011;61549;37.044;22.128;2022-10-20T12:38:42;4.05;;;3.28;;
73321;SDS011;61549;37.044;22.128;2022-10-20T12:41:31;4.05;;;3.00;;
73321;SDS011;61549;37.044;22.128;2022-10-20T12:44:04;4.60;;;3.30;;
73321;SDS011;61549;37.044;22.128;2022-10-20T12:46:41;3.80;;;3.10;;
73321;SDS011;61549;37.044;22.128;2022-10-20T12:49:30;4.15;;;3.00;;
73321;SDS011;61549;37.044;22.128;2022-10-20T12:51:58;5.05;;;3.35;;
73321;SDS011;61549;37.044;22.128;2022-10-20T12:56:51;5.28;;;3.45;;
73321;SDS011;61549;37.044;22.128;2022-10-20T13:15:31;4.45;;;3.50;;
73321;SDS011;61549;37.044;22.128;2022-10-20T13:18:01;4.32;;;3.28;;
73321;SDS011;61549;37.044;22.128;2022-10-20T13:23:36;3.97;;;3.15;;
73321;SDS011;61549;37.044;22.128;2022-10-20T13:28:46;4.72;;;3.30;;
73321;SDS011;61549;37.044;22.128;2022-10-20T13:36:34;3.95;;;3.45;;
73321;SDS011;61549;37.044;22.128;2022-10-20T13:39:33;3.95;;;3.50;;
73321;SDS011;61549;37.044;22.128;2022-10-20T13:50:15;6.13;;;3.65;;
73321;SDS011;61549;37.044;22.128;2022-10-20T13:53:08;5.10;;;3.53;;
73321;SDS011;61549;37.044;22.128;2022-10-20T13:58:23;4.43;;;3.30;;
73321;SDS011;61549;37.044;22.128;2022-10-20T14:00:57;5.32;;;3.60;;
73321;SDS011;61549;37.044;22.128;2022-10-20T14:03:29;6.03;;;3.65;;
73321;SDS011;61549;37.044;22.128;2022-10-20T14:05:57;4.22;;;3.67;;
73321;SDS011;61549;37.044;22.128;2022-10-20T14:08:23;4.35;;;3.65;;
73321;SDS011;61549;37.044;22.128;2022-10-20T14:10:51;4.10;;;3.70;;
73321;SDS011;61549;37.044;22.128;2022-10-20T14:13:29;5.35;;;3.80;;
73321;SDS011;61549;37.044;22.128;2022-10-20T14:15:58;6.32;;;3.70;;
73321;SDS011;61549;37.044;22.128;2022-10-20T14:18:29;4.85;;;3.60;;
73321;SDS011;61549;37.044;22.128;2022-10-20T14:21:00;4.40;;;3.50;;
73321;SDS011;61549;37.044;22.128;2022-10-20T14:23:34;4.90;;;3.75;;
73321;SDS011;61549;37.044;22.128;2022-10-20T14:26:05;7.22;;;3.90;;
73321;SDS011;61549;37.044;22.128;2022-10-20T14:28:37;6.43;;;4.00;;
73321;SDS011;61549;37.044;22.128;2022-10-20T14:31:04;4.40;;;3.50;;
73321;SDS011;61549;37.044;22.128;2022-10-20T14:33:32;6.88;;;3.67;;
73321;SDS011;61549;37.044;22.128;2022-10-20T14:36:01;5.72;;;3.53;;
73321;SDS011;61549;37.044;22.128;2022-10-20T14:38:35;4.55;;;3.65;;
73321;SDS011;61549;37.044;22.128;2022-10-20T14:41:03;6.15;;;4.00;;
73321;SDS011;61549;37.044;22.128;2022-10-20T14:46:11;5.18;;;3.30;;
73321;SDS011;61549;37.044;22.128;2022-10-20T14:48:46;5.25;;;3.50;;
73321;SDS011;61549;37.044;22.128;2022-10-20T14:51:59;4.40;;;3.60;;
73321;SDS011;61549;37.044;22.128;2022-10-20T14:56:52;4.55;;;3.75;;
73321;SDS011;61549;37.044;22.128;2022-10-20T14:59:27;4.78;;;3.88;;
73321;SDS011;61549;37.044;22.128;2022-10-20T15:04:32;4.80;;;3.65;;
73321;SDS011;61549;37.044;22.128;2022-10-20T15:09:58;6.35;;;4.18;;
73321;SDS011;61549;37.044;22.128;2022-10-20T15:15:06;4.85;;;4.20;;
73321;SDS011;61549;37.044;22.128;2022-10-20T15:17:36;4.72;;;4.20;;
73321;SDS011;61549;37.044;22.128;2022-10-20T15:23:00;6.35;;;4.18;;
73321;SDS011;61549;37.044;22.128;2022-10-20T15:25:28;6.38;;;4.07;;
73321;SDS011;61549;37.044;22.128;2022-10-20T15:28:20;5.32;;;4.20;;
73321;SDS011;61549;37.044;22.128;2022-10-20T15:30:47;7.68;;;4.40;;
73321;SDS011;61549;37.044;22.128;2022-10-20T15:33:13;7.53;;;4.70;;
73321;SDS011;61549;37.044;22.128;2022-10-20T15:35:39;5.45;;;4.10;;
73321;SDS011;61549;37.044;22.128;2022-10-20T15:38:09;6.35;;;4.70;;
73321;SDS011;61549;37.044;22.128;2022-10-20T15:40:35;7.95;;;4.60;;
73321;SDS011;61549;37.044;22.128;2022-10-20T15:43:01;8.15;;;4.85;;
73321;SDS011;61549;37.044;22.128;2022-10-20T15:45:27;7.93;;;5.05;;
73321;SDS011;61549;37.044;22.128;2022-10-20T15:47:59;6.00;;;5.10;;
73321;SDS011;61549;37.044;22.128;2022-10-20T15:50:24;6.53;;;5.13;;
73321;SDS011;61549;37.044;22.128;2022-10-20T15:52:50;5.97;;;5.00;;
73321;SDS011;61549;37.044;22.128;2022-10-20T15:57:46;6.05;;;5.43;;
73321;SDS011;61549;37.044;22.128;2022-10-20T16:00:16;7.20;;;5.50;;
73321;SDS011;61549;37.044;22.128;2022-10-20T16:02:43;7.15;;;5.40;;
73321;SDS011;61549;37.044;22.128;2022-10-20T16:05:09;7.05;;;5.32;;
73321;SDS011;61549;37.044;22.128;2022-10-20T16:07:35;8.48;;;4.85;;
73321;SDS011;61549;37.044;22.128;2022-10-20T16:10:02;7.43;;;5.13;;
73321;SDS011;61549;37.044;22.128;2022-10-20T16:12:29;6.85;;;4.40;;
73321;SDS011;61549;37.044;22.128;2022-10-20T16:14:54;6.70;;;4.78;;
73321;SDS011;61549;37.044;22.128;2022-10-20T16:17:20;5.32;;;4.75;;
73321;SDS011;61549;37.044;22.128;2022-10-20T16:19:46;7.35;;;5.10;;
73321;SDS011;61549;37.044;22.128;2022-10-20T16:22:12;6.70;;;4.90;;
73321;SDS011;61549;37.044;22.128;2022-10-20T16:24:38;6.93;;;5.22;;
73321;SDS011;61549;37.044;22.128;2022-10-20T16:27:04;5.93;;;4.53;;
73321;SDS011;61549;37.044;22.128;2022-10-20T16:29:30;6.95;;;5.07;;
73321;SDS011;61549;37.044;22.128;2022-10-20T16:31:58;5.43;;;4.45;;
73321;SDS011;61549;37.044;22.128;2022-10-20T16:34:24;5.53;;;4.65;;
73321;SDS011;61549;37.044;22.128;2022-10-20T16:36:51;6.63;;;4.90;;
73321;SDS011;61549;37.044;22.128;2022-10-20T16:39:17;6.15;;;4.78;;
73321;SDS011;61549;37.044;22.128;2022-10-20T16:41:44;8.48;;;4.90;;
73321;SDS011;61549;37.044;22.128;2022-10-20T16:44:10;6.90;;;4.82;;
73321;SDS011;61549;37.044;22.128;2022-10-20T16:46:37;5.35;;;4.85;;
73321;SDS011;61549;37.044;22.128;2022-10-20T16:49:03;5.20;;;4.70;;
73321;SDS011;61549;37.044;22.128;2022-10-20T16:51:29;5.32;;;4.65;;
73321;SDS011;61549;37.044;22.128;2022-10-20T16:53:55;6.03;;;4.60;;
73321;SDS011;61549;37.044;22.128;2022-10-20T16:56:21;8.02;;;4.97;;
73321;SDS011;61549;37.044;22.128;2022-10-20T16:58:48;6.70;;;5.07;;
73321;SDS011;61549;37.044;22.128;2022-10-20T17:01:15;6.55;;;4.88;;
73321;SDS011;61549;37.044;22.128;2022-10-20T17:03:43;7.20;;;5.00;;
73321;SDS011;61549;37.044;22.128;2022-10-20T17:06:11;5.75;;;5.20;;
73321;SDS011;61549;37.044;22.128;2022-10-20T17:08:38;7.30;;;5.00;;
73321;SDS011;61549;37.044;22.128;2022-10-20T17:11:07;5.97;;;5.38;;
73321;SDS011;61549;37.044;22.128;2022-10-20T17:13:35;5.53;;;5.00;;
73321;SDS011;61549;37.044;22.128;2022-10-20T17:16:03;5.53;;;4.88;;
73321;SDS011;61549;37.044;22.128;2022-10-20T17:18:33;6.57;;;5.43;;
73321;SDS011;61549;37.044;22.128;2022-10-20T17:21:00;6.38;;;5.00;;
73321;SDS011;61549;37.044;22.128;2022-10-20T17:23:26;8.63;;;5.03;;
73321;SDS011;61549;37.044;22.128;2022-10-20T17:25:57;6.10;;;5.30;;
73321;SDS011;61549;37.044;22.128;2022-10-20T17:28:30;6.35;;;5.25;;
73321;SDS011;61549;37.044;22.128;2022-10-20T17:30:57;6.20;;;5.13;;
73321;SDS011;61549;37.044;22.128;2022-10-20T17:33:24;7.10;;;5.70;;